»·PEaware :: DAL576 KMSO-KPDX

DAL576 :: KMSO-KPDX

FLIGHT INFORMATION

Flight Status: Arrived
Operator:
Delta Air Lines
More flights by this operator :: More flights under this callsign
Pilot: Anonymous 8274 (8274)
Aircraft: BOEING 737-200
(B732)
More flights by this aircraft type
Origin: KMSO Missoula Intl
United States
Destination: KPDX Portland Intl
United States
More flights between these airports :: More routes between these airports
Route: MZULA4 MLP J70 SEA HELNS5
File this flight plan on PilotEdge
Remarks:
Altitude:
(Current/Filed)
28,000ft
Speed:
(Current/Filed)
460kts
Departed: 13-Jan-18 04:27 PM
Arrived: 13-Jan-18 05:55 PM
Distance/Time
Traveled:
362nm/1:28
Distance/Time
To Go:
Arrived

Flight Plot

Page will automatically refresh every two minutes.

Flight plan parsing failed; only flown route is shown


Map Options




Map Legend


Flown Route
Filed Route
Departure Airport
Arrival Airport
Navaid (VOR, NDB)
Fix

Horizontal Profiles

Position Reports

Time Latitude Longitude Heading Altitude Ground
Speed
13-Jan-18 15:49 46.918910 -114.085075 109 3203ft 0kts
13-Jan-18 15:50 46.918910 -114.085075 109 3203ft 0kts
13-Jan-18 15:51 46.918910 -114.085075 109 3203ft 0kts
13-Jan-18 15:52 46.918910 -114.085075 109 3203ft 0kts
13-Jan-18 15:53 46.918910 -114.085075 109 3203ft 0kts
13-Jan-18 15:54 46.918910 -114.085075 109 3203ft 0kts
13-Jan-18 15:55 46.918910 -114.085075 109 3203ft 0kts
13-Jan-18 15:56 46.918910 -114.085075 109 3203ft 0kts
13-Jan-18 15:57 46.918910 -114.085075 109 3203ft 0kts
13-Jan-18 15:58 46.918910 -114.085075 109 3203ft 0kts
13-Jan-18 15:59 46.918910 -114.085075 109 3203ft 0kts
13-Jan-18 16:00 46.918910 -114.085075 109 3203ft 0kts
13-Jan-18 16:01 46.918910 -114.085075 109 3203ft 0kts
13-Jan-18 16:02 46.918910 -114.085075 109 3203ft 0kts
13-Jan-18 16:03 46.918910 -114.085075 109 3203ft 0kts
13-Jan-18 16:04 46.918910 -114.085075 109 3203ft 0kts
13-Jan-18 16:05 46.918910 -114.085075 109 3203ft 0kts
13-Jan-18 16:06 46.918910 -114.085075 109 3203ft 0kts
13-Jan-18 16:07 46.918910 -114.085075 109 3203ft 0kts
13-Jan-18 16:08 46.918910 -114.085075 109 3203ft 0kts
13-Jan-18 16:09 46.918910 -114.085075 109 3203ft 0kts
13-Jan-18 16:10 46.918966 -114.085315 108 3204ft 1kts
13-Jan-18 16:11 46.918605 -114.085688 321 3204ft 1kts
13-Jan-18 16:12 46.918573 -114.085646 316 3203ft 0kts
13-Jan-18 16:13 46.918573 -114.085646 316 3203ft 0kts
13-Jan-18 16:14 46.918573 -114.085646 316 3203ft 0kts
13-Jan-18 16:15 46.918573 -114.085646 316 3203ft 0kts
13-Jan-18 16:16 46.918573 -114.085646 316 3203ft 0kts
13-Jan-18 16:17 46.918573 -114.085646 316 3203ft 0kts
13-Jan-18 16:18 46.918573 -114.085646 316 3203ft 0kts
13-Jan-18 16:19 46.918573 -114.085646 316 3203ft 0kts
13-Jan-18 16:20 46.918573 -114.085646 316 3203ft 0kts
13-Jan-18 16:21 46.918573 -114.085646 316 3203ft 0kts
13-Jan-18 16:22 46.918573 -114.085646 316 3203ft 0kts
13-Jan-18 16:23 46.918573 -114.085646 316 3203ft 0kts
13-Jan-18 16:24 46.918573 -114.085646 316 3203ft 0kts
13-Jan-18 16:25 46.920101 -114.089224 313 3204ft 22kts
13-Jan-18 16:26 46.919327 -114.092755 226 3204ft 15kts
13-Jan-18 16:27 46.921588 -114.097327 309 3204ft 18kts
13-Jan-18 16:28 46.925711 -114.105215 224 3204ft 12kts
13-Jan-18 16:29 46.925531 -114.105432 218 3203ft 0kts
13-Jan-18 16:30 46.925531 -114.105432 218 3203ft 0kts
13-Jan-18 16:31 46.925474 -114.105498 218 3204ft 3kts
13-Jan-18 16:32 46.924479 -114.105929 129 3204ft 0kts
13-Jan-18 16:33 46.906137 -114.074581 133 3845ft 156kts
13-Jan-18 16:34 46.871306 -114.043322 197 5420ft 189kts
13-Jan-18 16:35 46.811389 -114.065958 180 7010ft 264kts
13-Jan-18 16:36 46.735488 -114.041125 174 9433ft 294kts
13-Jan-18 16:37 46.658466 -114.006344 130 11753ft 319kts
13-Jan-18 16:38 46.662298 -113.896206 30 12017ft 285kts
13-Jan-18 16:39 46.724916 -113.924839 298 14073ft 275kts
13-Jan-18 16:40 46.757280 -114.026994 299 16346ft 282kts
13-Jan-18 16:41 46.827673 -114.065641 353 17804ft 312kts
13-Jan-18 16:42 46.913071 -114.094536 324 19250ft 320kts
13-Jan-18 16:43 46.966073 -114.196438 312 20925ft 322kts
13-Jan-18 16:44 47.029871 -114.286486 310 22457ft 323kts
13-Jan-18 16:45 47.083098 -114.392655 311 23679ft 327kts
13-Jan-18 16:46 47.135617 -114.484412 312 24685ft 331kts
13-Jan-18 16:47 47.176461 -114.604380 290 25659ft 347kts
13-Jan-18 16:48 47.205236 -114.734471 295 26506ft 349kts
13-Jan-18 16:49 47.240670 -114.863973 300 27326ft 349kts
13-Jan-18 16:50 47.281227 -114.993171 300 28033ft 353kts
13-Jan-18 16:51 47.328367 -115.120380 303 28459ft 361kts
13-Jan-18 16:52 47.365784 -115.262195 290 28480ft 386kts
13-Jan-18 16:53 47.396950 -115.414937 294 28479ft 392kts
13-Jan-18 16:54 47.436458 -115.563155 295 28489ft 392kts
13-Jan-18 16:55 47.466417 -115.707000 277 28483ft 404kts
13-Jan-18 16:56 47.439723 -115.866732 280 28509ft 402kts
13-Jan-18 16:57 47.454181 -116.028925 274 28492ft 407kts
13-Jan-18 16:58 47.451563 -116.194859 277 28494ft 406kts
13-Jan-18 16:59 47.453208 -116.360490 277 28492ft 406kts
13-Jan-18 17:00 47.454931 -116.519713 277 28491ft 406kts
13-Jan-18 17:02 47.457401 -116.846923 275 28496ft 409kts
13-Jan-18 17:03 47.454491 -117.014658 273 28489ft 411kts
13-Jan-18 17:04 47.451844 -117.182588 273 28484ft 412kts
13-Jan-18 17:05 47.446328 -117.351184 271 28475ft 414kts
13-Jan-18 17:06 47.440482 -117.520277 271 28465ft 415kts
13-Jan-18 17:07 47.433571 -117.684417 268 28460ft 418kts
13-Jan-18 17:08 47.421911 -117.847243 268 28459ft 419kts
13-Jan-18 17:09 47.411724 -118.018238 272 28456ft 417kts
13-Jan-18 17:10 47.408377 -118.188715 272 28459ft 418kts
13-Jan-18 17:11 47.405169 -118.359838 272 28456ft 418kts
13-Jan-18 17:12 47.405313 -118.530179 274 28484ft 417kts
13-Jan-18 17:13 47.406558 -118.691725 274 28496ft 417kts
13-Jan-18 17:14 47.407959 -118.860148 274 28496ft 418kts
13-Jan-18 17:15 47.410783 -119.030475 274 28494ft 418kts
13-Jan-18 17:16 47.385006 -119.197520 253 28494ft 428kts
13-Jan-18 17:17 47.341859 -119.360848 253 28491ft 428kts
13-Jan-18 17:18 47.333668 -119.527054 283 28485ft 414kts
13-Jan-18 17:19 47.354429 -119.681560 283 28496ft 414kts
13-Jan-18 17:20 47.381588 -119.843396 283 28501ft 414kts
13-Jan-18 17:21 47.395238 -120.008773 276 28512ft 417kts
13-Jan-18 17:22 47.402084 -120.179058 275 28511ft 417kts
13-Jan-18 17:23 47.407325 -120.349760 275 28510ft 417kts
13-Jan-18 17:24 47.412048 -120.520791 275 28505ft 417kts
13-Jan-18 17:25 47.416097 -120.683469 274 28472ft 413kts
13-Jan-18 17:26 47.419119 -120.826653 274 28458ft 411kts
13-Jan-18 17:27 47.422853 -120.990461 274 28457ft 408kts
13-Jan-18 17:28 47.426477 -121.154258 273 28455ft 406kts
13-Jan-18 17:29 47.429842 -121.320591 272 28430ft 406kts
13-Jan-18 17:30 47.432943 -121.486927 272 28391ft 405kts
13-Jan-18 17:31 47.435498 -121.634811 272 28390ft 404kts
13-Jan-18 17:32 47.437390 -121.782390 272 28394ft 404kts
13-Jan-18 17:33 47.439684 -121.944945 272 28393ft 404kts
13-Jan-18 17:34 47.441905 -122.109044 272 28393ft 403kts
13-Jan-18 17:35 47.438139 -122.265431 266 28393ft 403kts
13-Jan-18 17:36 47.405846 -122.403673 225 28406ft 415kts
13-Jan-18 17:37 47.296911 -122.423712 162 28412ft 443kts
13-Jan-18 17:38 47.186001 -122.344160 163 28378ft 444kts
13-Jan-18 17:39 47.068119 -122.315566 180 28380ft 437kts
13-Jan-18 17:40 46.947651 -122.310662 182 28379ft 435kts
13-Jan-18 17:41 46.835104 -122.309867 181 28373ft 434kts
13-Jan-18 17:42 46.729586 -122.309663 182 28374ft 433kts
13-Jan-18 17:43 46.611827 -122.309622 182 27002ft 418kts
13-Jan-18 17:44 46.498791 -122.309653 182 24789ft 403kts
13-Jan-18 17:45 46.392415 -122.309689 181 22660ft 389kts
13-Jan-18 17:46 46.287865 -122.309729 181 20551ft 376kts
13-Jan-18 17:47 46.187769 -122.309770 181 18510ft 364kts
13-Jan-18 17:48 46.105747 -122.370877 231 16168ft 341kts
13-Jan-18 17:49 46.026785 -122.432770 193 12714ft 335kts
13-Jan-18 17:50 45.944101 -122.469046 204 11985ft 312kts
13-Jan-18 17:51 45.875096 -122.520420 208 11136ft 284kts
13-Jan-18 17:52 45.803434 -122.560305 201 9730ft 278kts
13-Jan-18 17:53 45.731992 -122.596835 200 7451ft 270kts
13-Jan-18 17:54 45.699699 -122.670764 291 5021ft 261kts
13-Jan-18 17:55 45.733855 -122.760407 298 3970ft 243kts
13-Jan-18 17:56 45.713693 -122.830506 186 3081ft 234kts
13-Jan-18 17:57 45.665180 -122.782998 134 2977ft 215kts
13-Jan-18 17:58 45.633779 -122.720428 118 2034ft 163kts
13-Jan-18 17:59 45.614582 -122.671033 119 891ft 141kts
13-Jan-18 18:00 45.596172 -122.624023 120 140ft 137kts
13-Jan-18 18:01 45.584255 -122.593486 119 38ft 25kts
13-Jan-18 18:02 45.584636 -122.591595 6 38ft 0kts
13-Jan-18 18:03 45.584796 -122.591578 1 38ft 7kts
13-Jan-18 18:04 45.588462 -122.598923 298 38ft 27kts
13-Jan-18 18:05 45.591341 -122.599405 103 38ft 17kts
13-Jan-18 18:06 45.590622 -122.595562 53 38ft 5kts
13-Jan-18 18:07 45.590662 -122.595482 53 38ft 0kts

Navigation Log

Ident Type
Flight plan parsing failed, navigation log unavailable